Time;durP1;ratioP1;P1;durP2;ratioP2;P2;SDS_P1;SDS_P2;PMS_P1;PMS_P2;Temp;Humidity;BMP_temperature;BMP_pressure;BME280_temperature;BME280_humidity;BME280_pressure;Samples;Min_cycle;Max_cycle;Signal;HPM_P1;HPM_P2
2022/02/21 00:01:11;;;;;;;84.95;47.58;;;;;;;9.39;63.45;101227.91;5112318;28;20040;-60
2022/02/21 00:03:38;;;;;;;90.88;48.42;;;;;;;9.45;63.74;101225.03;5115358;28;20051;-60
2022/02/21 00:06:04;;;;;;;89.00;47.17;;;;;;;9.51;64.02;101217.81;5115306;28;20078;-60
2022/02/21 00:08:31;;;;;;;85.30;47.10;;;;;;;9.54;64.34;101210.66;5115360;28;20389;-60
2022/02/21 00:10:58;;;;;;;87.70;46.35;;;;;;;9.55;64.55;101208.88;5096785;28;20428;-60
2022/02/21 00:13:24;;;;;;;86.15;47.25;;;;;;;9.53;64.72;101208.97;5095543;28;20052;-60
2022/02/21 00:15:51;;;;;;;87.07;46.78;;;;;;;9.56;64.98;101194.88;5096373;28;20438;-60
2022/02/21 00:18:17;;;;;;;89.90;47.30;;;;;;;9.57;65.28;101192.22;5095533;28;20052;-60
2022/02/21 00:20:44;;;;;;;89.97;46.70;;;;;;;9.59;65.23;101192.97;5096255;28;20092;-61
2022/02/21 00:23:13;;;;;;;80.53;44.28;;;;;;;9.60;65.38;101197.28;5095873;28;20059;-60
2022/02/21 00:25:39;;;;;;;82.53;44.83;;;;;;;9.61;65.48;101187.66;5094682;28;20122;-60
2022/02/21 00:28:06;;;;;;;87.03;44.50;;;;;;;9.62;65.49;101191.97;5093857;28;20491;-61
2022/02/21 00:30:33;;;;;;;80.35;42.83;;;;;;;9.62;65.59;101198.09;5095385;28;20052;-60
2022/02/21 00:32:59;;;;;;;83.15;46.03;;;;;;;9.58;65.60;101196.50;5109090;28;20044;-60
2022/02/21 00:35:26;;;;;;;83.20;45.42;;;;;;;9.57;65.65;101196.59;5114907;28;20043;-60
2022/02/21 00:37:52;;;;;;;82.53;43.88;;;;;;;9.56;65.87;101190.50;5114715;28;20516;-60
2022/02/21 00:40:19;;;;;;;81.57;44.00;;;;;;;9.55;65.81;101193.16;5114550;28;20036;-60
2022/02/21 00:42:46;;;;;;;78.22;41.33;;;;;;;9.54;65.88;101194.94;5110402;28;20506;-60
2022/02/21 00:45:12;;;;;;;82.25;42.85;;;;;;;9.51;65.92;101187.25;5114748;28;20044;-60
2022/02/21 00:47:40;;;;;;;81.60;43.13;;;;;;;9.51;66.04;101183.75;5104271;28;20508;-61
2022/02/21 00:50:08;;;;;;;81.47;44.08;;;;;;;9.49;66.13;101173.34;5095330;28;20044;-60
2022/02/21 00:52:35;;;;;;;77.25;43.28;;;;;;;9.51;66.09;101171.53;5114660;28;20044;-60
2022/02/21 00:55:02;;;;;;;80.90;42.08;;;;;;;9.48;66.11;101172.50;5112847;28;20051;-60
2022/02/21 00:57:29;;;;;;;76.65;43.95;;;;;;;9.50;66.14;101168.94;5100245;28;20066;-60
2022/02/21 00:59:55;;;;;;;81.70;43.80;;;;;;;9.50;66.18;101158.47;5106532;28;20480;-61
2022/02/21 01:02:26;;;;;;;78.72;44.00;;;;;;;9.50;66.19;101155.84;5113319;28;20118;-60
2022/02/21 01:04:53;;;;;;;79.32;41.92;;;;;;;9.48;66.32;101162.03;5114177;28;20044;-61
2022/02/21 01:07:19;;;;;;;76.30;41.10;;;;;;;9.46;66.47;101163.03;5114060;28;20039;-60
2022/02/21 01:09:46;;;;;;;70.97;39.95;;;;;;;9.41;66.43;101154.53;5110623;28;20549;-60
2022/02/21 01:12:14;;;;;;;73.35;40.00;;;;;;;9.36;66.36;101146.00;5113884;28;20047;-60
2022/02/21 01:14:41;;;;;;;72.65;39.95;;;;;;;9.28;66.31;101141.09;5114142;28;20096;-60
2022/02/21 01:17:07;;;;;;;67.25;38.75;;;;;;;9.24;66.14;101134.31;5112999;28;20556;-60
2022/02/21 01:19:34;;;;;;;71.28;39.00;;;;;;;9.20;65.93;101135.38;5113975;28;20044;-60
2022/02/21 01:22:03;;;;;;;71.47;38.97;;;;;;;9.15;65.89;101128.59;5113794;28;20100;-60
2022/02/21 01:24:30;;;;;;;68.30;38.55;;;;;;;9.12;65.73;101135.72;5111488;28;20043;-64
2022/02/21 01:26:57;;;;;;;71.57;38.53;;;;;;;9.07;65.75;101135.06;5086207;28;20100;-60
2022/02/21 01:29:24;;;;;;;65.68;36.70;;;;;;;9.04;65.53;101138.69;5113608;28;20751;-60
2022/02/21 01:31:50;;;;;;;68.50;38.15;;;;;;;9.01;65.48;101132.72;5099271;28;20491;-60
2022/02/21 01:34:17;;;;;;;62.85;36.47;;;;;;;8.99;65.36;101136.25;5102469;28;20048;-60
2022/02/21 01:36:44;;;;;;;67.10;37.00;;;;;;;8.98;64.81;101131.94;5110639;28;20051;-61
2022/02/21 01:39:11;;;;;;;68.47;37.20;;;;;;;8.95;65.07;101120.75;5113268;28;20117;-60
2022/02/21 01:41:37;;;;;;;65.72;36.10;;;;;;;8.94;65.17;101127.75;5113370;28;20491;-60
2022/02/21 01:44:10;;;;;;;65.38;36.40;;;;;;;8.92;64.94;101120.88;5113381;28;20484;-60
2022/02/21 01:46:38;;;;;;;68.53;36.97;;;;;;;8.92;64.92;101111.25;5113329;28;20054;-59
2022/02/21 01:49:06;;;;;;;68.65;36.95;;;;;;;8.96;64.87;101117.22;5108320;28;20051;-60
2022/02/21 01:51:35;;;;;;;66.95;36.75;;;;;;;8.97;64.87;101109.28;5106448;28;20048;-60
2022/02/21 01:54:05;;;;;;;62.35;35.83;;;;;;;8.95;65.04;101092.81;5113030;28;20039;-60
2022/02/21 01:56:33;;;;;;;62.67;35.67;;;;;;;8.96;65.01;101077.94;5113243;28;20063;-60
2022/02/21 01:59:00;;;;;;;67.88;36.55;;;;;;;8.98;65.01;101076.97;5112890;28;20047;-60
2022/02/21 02:01:26;;;;;;;69.60;38.42;;;;;;;8.98;65.03;101081.34;5113441;28;20446;-61
2022/02/21 02:03:53;;;;;;;65.05;37.35;;;;;;;8.99;65.08;101070.81;5113089;28;20047;-60
2022/02/21 02:06:21;;;;;;;74.93;40.08;;;;;;;9.01;65.20;101054.19;5108222;28;20040;-60
2022/02/21 02:08:47;;;;;;;80.05;42.47;;;;;;;9.01;65.21;101043.72;5098605;28;20480;-60
2022/02/21 02:11:15;;;;;;;79.85;41.80;;;;;;;9.02;65.38;101042.81;5100914;28;20055;-61
2022/02/21 02:13:41;;;;;;;75.75;41.80;;;;;;;9.04;65.47;101031.34;5097634;28;20048;-60
2022/02/21 02:16:08;;;;;;;76.50;43.03;;;;;;;9.06;65.67;101026.03;5102470;28;20442;-60
2022/02/21 02:18:35;;;;;;;72.10;41.10;;;;;;;9.04;65.89;101031.34;5097507;28;20074;-61
2022/02/21 02:21:02;;;;;;;70.70;39.35;;;;;;;9.03;65.96;101015.69;5101473;28;20051;-60
2022/02/21 02:23:29;;;;;;;79.85;41.17;;;;;;;9.05;66.04;101009.47;5100711;28;20040;-60
2022/02/21 02:25:55;;;;;;;81.93;43.58;;;;;;;9.05;66.10;101001.59;5103055;28;20044;-61
2022/02/21 02:28:24;;;;;;;78.32;41.85;;;;;;;9.06;66.32;101000.69;5099915;28;20450;-60
2022/02/21 02:30:51;;;;;;;79.30;43.13;;;;;;;9.05;66.47;100996.38;5096333;28;20097;-61
2022/02/21 02:33:17;;;;;;;76.72;42.70;;;;;;;9.03;66.59;100985.16;5109622;28;20085;-60
2022/02/21 02:35:44;;;;;;;73.03;41.28;;;;;;;9.01;66.61;100986.97;5112538;28;20051;-60
2022/02/21 02:38:11;;;;;;;74.18;39.60;;;;;;;8.98;66.75;100989.75;5112742;28;20503;-60
2022/02/21 02:40:37;;;;;;;67.97;37.17;;;;;;;8.95;66.63;100980.28;5100965;28;20040;-60
2022/02/21 02:43:04;;;;;;;67.05;37.35;;;;;;;8.93;66.56;100978.66;5112446;28;20051;-61
2022/02/21 02:45:30;;;;;;;68.57;39.15;;;;;;;8.91;66.60;100976.09;5112495;28;20040;-61
2022/02/21 02:47:57;;;;;;;66.63;37.47;;;;;;;8.89;66.60;100962.22;5112203;28;20096;-60
2022/02/21 02:50:24;;;;;;;63.83;35.95;;;;;;;8.87;66.55;100956.19;5111740;28;20092;-61
2022/02/21 02:52:50;;;;;;;63.85;34.75;;;;;;;8.85;66.51;100944.09;5112267;28;20075;-61
2022/02/21 02:55:17;;;;;;;61.33;34.38;;;;;;;8.82;66.49;100940.72;5112287;28;20093;-60
2022/02/21 02:57:43;;;;;;;62.78;34.33;;;;;;;8.80;66.43;100936.50;5102933;28;20044;-60
2022/02/21 03:00:13;;;;;;;60.33;34.63;;;;;;;8.79;66.49;100947.88;5112279;28;20052;-61
2022/02/21 03:02:40;;;;;;;60.85;34.45;;;;;;;8.77;66.45;100936.63;5112425;28;20097;-60
2022/02/21 03:05:07;;;;;;;59.05;34.03;;;;;;;8.75;66.33;100931.47;5112126;28;20576;-60
2022/02/21 03:07:34;;;;;;;65.25;36.72;;;;;;;8.73;66.38;100928.06;5112076;28;20541;-61
2022/02/21 03:10:00;;;;;;;65.80;37.10;;;;;;;8.73;66.36;100933.28;5112174;28;20055;-60
2022/02/21 03:12:27;;;;;;;68.03;38.40;;;;;;;8.73;66.29;100933.28;5111987;28;20059;-60
2022/02/21 03:14:54;;;;;;;71.47;38.28;;;;;;;8.70;66.34;100930.81;5105970;28;20048;-60
2022/02/21 03:17:25;;;;;;;72.40;37.75;;;;;;;8.71;66.27;100926.44;5099263;28;20385;-60
2022/02/21 03:19:51;;;;;;;65.70;37.45;;;;;;;8.72;66.34;100922.91;5099986;28;20549;-60
2022/02/21 03:22:18;;;;;;;68.00;36.40;;;;;;;8.71;66.36;100915.97;5097242;28;20550;-60
2022/02/21 03:24:44;;;;;;;65.13;37.08;;;;;;;8.71;66.30;100919.44;5101312;28;20040;-60
2022/02/21 03:27:11;;;;;;;70.22;38.78;;;;;;;8.72;66.40;100905.41;5096897;28;20073;-61
2022/02/21 03:29:37;;;;;;;67.03;37.65;;;;;;;8.75;66.39;100896.63;5100677;28;20043;-60
2022/02/21 03:32:05;;;;;;;66.00;35.35;;;;;;;8.74;66.47;100892.28;5098654;28;20100;-60
2022/02/21 03:34:32;;;;;;;67.78;38.72;;;;;;;8.74;66.49;100889.69;5112295;28;20077;-60
2022/02/21 03:36:58;;;;;;;65.50;35.50;;;;;;;8.73;66.69;100896.66;5111813;28;20070;-60
2022/02/21 03:39:25;;;;;;;65.13;36.67;;;;;;;8.72;66.59;100894.13;5111927;28;20055;-63
2022/02/21 03:41:52;;;;;;;71.20;37.92;;;;;;;8.70;66.75;100890.72;5111654;28;20040;-60
2022/02/21 03:44:18;;;;;;;69.28;37.88;;;;;;;8.69;66.76;100897.72;5112144;28;20044;-61
2022/02/21 03:46:45;;;;;;;72.05;37.95;;;;;;;8.69;66.86;100902.13;5106929;28;20040;-60
2022/02/21 03:49:12;;;;;;;65.38;37.30;;;;;;;8.66;66.87;100892.66;5112142;28;20048;-60
2022/02/21 03:51:39;;;;;;;68.80;38.30;;;;;;;8.64;66.98;100897.94;5112041;28;20484;-60
2022/02/21 03:54:07;;;;;;;71.43;37.75;;;;;;;8.63;67.00;100904.09;5111440;28;20047;-60
2022/02/21 03:56:40;;;;;;;67.38;37.33;;;;;;;8.63;67.13;100905.84;5111962;28;20043;-64
2022/02/21 03:59:18;;;;;;;72.70;38.03;;;;;;;8.63;67.14;100898.88;5111473;28;20059;-64
2022/02/21 04:01:52;;;;;;;71.88;37.72;;;;;;;8.63;67.02;100888.41;5112558;28;20096;-60
2022/02/21 04:04:18;;;;;;;70.32;38.42;;;;;;;8.65;67.09;100893.56;5100641;27;20040;-60
2022/02/21 04:06:45;;;;;;;71.55;39.33;;;;;;;8.68;67.16;100876.88;5092592;28;20101;-60
2022/02/21 04:09:12;;;;;;;73.25;39.10;;;;;;;8.70;67.08;100873.25;5092970;28;20401;-61
2022/02/21 04:11:39;;;;;;;71.22;38.22;;;;;;;8.70;67.26;100857.56;5092498;28;20564;-60
2022/02/21 04:14:05;;;;;;;68.97;36.75;;;;;;;8.72;67.40;100865.34;5093031;28;20113;-60
2022/02/21 04:16:34;;;;;;;69.13;36.33;;;;;;;8.70;67.38;100862.81;5092290;28;20040;-59
2022/02/21 04:19:04;;;;;;;70.43;37.42;;;;;;;8.65;67.63;100870.03;5092721;28;20070;-61
2022/02/21 04:21:31;;;;;;;68.53;37.47;;;;;;;8.63;67.62;100857.03;5091687;28;20055;-60
2022/02/21 04:23:59;;;;;;;63.85;36.58;;;;;;;8.61;67.67;100851.00;5091807;28;20048;-59
2022/02/21 04:26:25;;;;;;;66.82;36.45;;;;;;;8.61;67.68;100853.63;5092040;28;20044;-60
2022/02/21 04:28:52;;;;;;;63.47;35.95;;;;;;;8.59;67.72;100860.66;5097901;27;20048;-60
2022/02/21 04:31:19;;;;;;;73.07;36.92;;;;;;;8.59;67.69;100865.91;5092139;28;20097;-60
2022/02/21 04:33:47;;;;;;;70.22;37.70;;;;;;;8.57;67.70;100859.03;5110629;28;20093;-60
2022/02/21 04:36:15;;;;;;;65.32;35.42;;;;;;;8.56;67.73;100841.66;5112100;28;20043;-60
2022/02/21 04:38:43;;;;;;;62.72;35.55;;;;;;;8.56;67.57;100828.56;5111469;28;20062;-60
2022/02/21 04:41:09;;;;;;;64.65;34.13;;;;;;;8.56;67.60;100824.22;5111582;28;20430;-60
2022/02/21 04:43:36;;;;;;;72.50;36.42;;;;;;;8.56;67.57;100818.97;5111285;28;20075;-60
2022/02/21 04:46:02;;;;;;;90.88;39.15;;;;;;;8.56;67.68;100818.97;5111217;28;20752;-60
2022/02/21 04:48:29;;;;;;;85.07;37.80;;;;;;;8.58;67.69;100808.44;5111255;28;20079;-60
2022/02/21 04:50:56;;;;;;;78.50;37.90;;;;;;;8.60;67.58;100793.53;5094336;28;20044;-60
2022/02/21 04:53:22;;;;;;;74.40;37.22;;;;;;;8.59;67.58;100783.97;5094170;28;20101;-60
2022/02/21 04:55:50;;;;;;;72.32;37.13;;;;;;;8.59;67.63;100783.97;5096360;28;20098;-60
2022/02/21 04:58:16;;;;;;;67.88;36.80;;;;;;;8.55;68.13;100785.06;5093664;28;20492;-60
2022/02/21 05:00:43;;;;;;;64.93;35.60;;;;;;;8.54;67.96;100783.34;5096941;28;20117;-60
2022/02/21 05:03:10;;;;;;;64.72;35.70;;;;;;;8.54;67.89;100773.72;5093957;28;20078;-61
2022/02/21 05:05:37;;;;;;;64.50;35.63;;;;;;;8.54;67.84;100765.06;5101829;28;20044;-60
2022/02/21 05:08:03;;;;;;;62.25;35.58;;;;;;;8.55;67.86;100759.75;5093849;28;20113;-60
2022/02/21 05:10:30;;;;;;;69.03;36.15;;;;;;;8.56;67.90;100758.81;5094666;28;20488;-60
2022/02/21 05:12:57;;;;;;;67.15;36.20;;;;;;;8.56;67.81;100745.75;5094231;28;20113;-60
2022/02/21 05:15:23;;;;;;;64.18;34.97;;;;;;;8.57;67.89;100738.72;5093640;28;20093;-60
2022/02/21 05:17:50;;;;;;;68.43;35.38;;;;;;;8.54;67.92;100733.66;5096560;28;20446;-60
2022/02/21 05:20:17;;;;;;;67.65;35.53;;;;;;;8.50;68.15;100718.09;5093584;28;20044;-60
2022/02/21 05:22:43;;;;;;;61.17;34.28;;;;;;;8.52;68.09;100707.59;5098593;28;20488;-60
2022/02/21 05:25:10;;;;;;;66.18;36.72;;;;;;;8.55;68.05;100706.59;5093079;28;20048;-60
2022/02/21 05:27:38;;;;;;;67.38;36.85;;;;;;;8.53;68.25;100701.41;5095060;28;20063;-60
2022/02/21 05:30:10;;;;;;;64.07;36.03;;;;;;;8.55;68.23;100691.72;5093204;28;20055;-61
2022/02/21 05:32:37;;;;;;;65.18;35.75;;;;;;;8.54;68.25;100703.13;5101547;28;20385;-60
2022/02/21 05:35:04;;;;;;;70.35;35.65;;;;;;;8.52;68.30;100704.13;5110227;28;20553;-60
2022/02/21 05:37:30;;;;;;;66.75;35.88;;;;;;;8.51;68.39;100700.66;5102695;27;20494;-60
2022/02/21 05:39:57;;;;;;;61.67;35.60;;;;;;;8.52;68.44;100698.88;5109675;28;20047;-61
2022/02/21 05:42:24;;;;;;;57.08;33.60;;;;;;;8.51;68.48;100698.03;5110263;28;20099;-60
2022/02/21 05:44:50;;;;;;;64.75;34.88;;;;;;;8.50;68.57;100694.56;5109939;28;20044;-60
2022/02/21 05:47:17;;;;;;;65.38;36.00;;;;;;;8.53;68.51;100701.41;5096110;28;20058;-58
2022/02/21 05:49:44;;;;;;;70.20;34.85;;;;;;;8.50;68.58;100697.19;5109999;28;20048;-61
2022/02/21 05:52:10;;;;;;;65.70;34.05;;;;;;;8.53;68.37;100704.03;5106225;28;20052;-60
2022/02/21 05:54:37;;;;;;;63.97;36.20;;;;;;;8.52;68.61;100701.50;5099998;28;20104;-60
2022/02/21 05:57:04;;;;;;;68.78;35.55;;;;;;;8.49;68.62;100708.59;5109876;28;20115;-60
2022/02/21 05:59:33;;;;;;;65.32;37.13;;;;;;;8.52;68.68;100706.72;5110108;28;20043;-60
2022/02/21 06:01:59;;;;;;;68.88;36.83;;;;;;;8.49;68.78;100710.34;5109523;28;20463;-60
2022/02/21 06:04:26;;;;;;;71.93;36.95;;;;;;;8.50;68.86;100709.41;5109823;28;20047;-60
2022/02/21 06:06:53;;;;;;;63.55;34.92;;;;;;;8.53;68.97;100704.03;5109353;28;20059;-61
2022/02/21 06:09:20;;;;;;;62.67;35.47;;;;;;;8.56;68.67;100695.19;5105092;28;20530;-60
2022/02/21 06:11:47;;;;;;;65.35;36.58;;;;;;;8.58;68.70;100694.22;5101077;28;20116;-60
2022/02/21 06:14:13;;;;;;;65.70;36.30;;;;;;;8.56;68.80;100709.13;5109698;28;20039;-60
2022/02/21 06:16:41;;;;;;;68.65;37.38;;;;;;;8.58;68.84;100701.19;5109631;28;20047;-60
2022/02/21 06:19:08;;;;;;;72.82;36.90;;;;;;;8.58;68.91;100686.38;5094261;28;20436;-60
2022/02/21 06:21:34;;;;;;;66.20;37.28;;;;;;;8.56;69.01;100677.75;5092625;28;20051;-60
2022/02/21 06:24:01;;;;;;;68.93;37.38;;;;;;;8.58;69.01;100675.03;5092818;28;20051;-61
2022/02/21 06:26:28;;;;;;;68.38;37.00;;;;;;;8.57;69.09;100687.28;5094902;28;20557;-61
2022/02/21 06:28:54;;;;;;;68.50;38.58;;;;;;;8.57;69.12;100689.03;5092449;28;20450;-60
2022/02/21 06:31:21;;;;;;;70.53;36.92;;;;;;;8.56;69.00;100692.56;5100840;28;20039;-62
2022/02/21 06:33:48;;;;;;;71.30;36.60;;;;;;;8.56;69.08;100689.94;5097561;28;20039;-62
2022/02/21 06:36:15;;;;;;;68.70;35.83;;;;;;;8.54;69.16;100687.41;5109378;28;20097;-62
2022/02/21 06:38:41;;;;;;;64.88;36.03;;;;;;;8.53;69.16;100692.72;5109087;28;20036;-61
2022/02/21 06:41:08;;;;;;;64.70;35.88;;;;;;;8.49;69.08;100690.28;5108947;28;20487;-61
2022/02/21 06:43:35;;;;;;;74.97;37.22;;;;;;;8.51;68.88;100684.97;5101877;28;20047;-61
2022/02/21 06:46:01;;;;;;;66.13;35.53;;;;;;;8.51;69.00;100684.97;5096948;28;20071;-62
2022/02/21 06:48:28;;;;;;;65.10;35.63;;;;;;;8.53;68.96;100683.09;5096622;28;20044;-62
2022/02/21 06:50:55;;;;;;;68.47;37.03;;;;;;;8.54;68.90;100682.19;5098730;28;20523;-61
2022/02/21 06:53:21;;;;;;;57.33;27.70;;;;;;;8.65;69.30;100666.81;5094771;28;20051;-61
2022/02/21 06:55:48;;;;;;;71.07;37.55;;;;;;;8.95;68.62;100671.44;5100025;28;20088;-61
2022/02/21 06:58:15;;;;;;;73.35;37.97;;;;;;;8.86;69.05;100653.56;5093781;28;20047;-62
2022/02/21 07:00:42;;;;;;;74.30;36.83;;;;;;;8.82;69.08;100655.53;5099152;28;20554;-62
2022/02/21 07:03:09;;;;;;;76.88;37.90;;;;;;;8.77;69.17;100644.44;5095770;28;20044;-62
2022/02/21 07:05:36;;;;;;;69.35;37.63;;;;;;;8.79;69.18;100645.19;5096981;28;20048;-62
2022/02/21 07:08:03;;;;;;;89.80;29.42;;;;;;;8.85;69.49;100644.06;5097444;28;20082;-62
2022/02/21 07:10:30;;;;;;;68.95;37.90;;;;;;;8.86;69.24;100627.41;5095613;28;20094;-61
2022/02/21 07:12:56;;;;;;;68.03;37.63;;;;;;;8.83;69.36;100617.09;5093488;28;20049;-62
2022/02/21 07:15:23;;;;;;;73.40;41.10;;;;;;;8.75;69.44;100612.25;5102285;28;20040;-62
2022/02/21 07:17:50;;;;;;;74.85;37.90;;;;;;;8.71;69.40;100615.97;5093154;28;20071;-62
2022/02/21 07:20:16;;;;;;;71.03;38.15;;;;;;;8.70;69.35;100605.56;5090474;28;20036;-62
2022/02/21 07:22:45;;;;;;;90.72;44.80;;;;;;;8.69;69.37;100593.44;5091635;28;20036;-62
2022/02/21 07:25:14;;;;;;;100.65;49.70;;;;;;;8.70;69.36;100593.34;5088602;28;20484;-61
2022/02/21 07:27:48;;;;;;;124.20;52.65;;;;;;;8.72;69.45;100601.09;5102011;28;20058;-61
2022/02/21 07:30:18;;;;;;;125.50;50.10;;;;;;;8.78;69.71;100603.41;5103553;28;20461;-62
2022/02/21 07:32:45;;;;;;;101.32;48.88;;;;;;;8.77;69.76;100599.97;5093506;28;20055;-62
2022/02/21 07:35:12;;;;;;;102.95;48.50;;;;;;;8.68;70.11;100595.19;5096320;28;20059;-62
2022/02/21 07:37:39;;;;;;;96.63;46.47;;;;;;;8.71;70.13;100596.78;5078743;28;20407;-61
2022/02/21 07:40:08;;;;;;;120.00;47.35;;;;;;;8.66;70.54;100595.28;5105970;27;20058;-61
2022/02/21 07:42:35;;;;;;;74.13;44.53;;;;;;;8.65;71.02;100596.19;5107066;28;20044;-61
2022/02/21 07:45:02;;;;;;;72.18;44.67;;;;;;;8.77;70.79;100580.78;5107465;28;20052;-61
2022/02/21 07:47:29;;;;;;;74.68;44.17;;;;;;;8.85;70.81;100572.53;5102385;28;20100;-62
2022/02/21 07:49:57;;;;;;;76.05;41.40;;;;;;;8.85;70.87;100569.91;5108421;28;20484;-61
2022/02/21 07:52:25;;;;;;;71.68;41.65;;;;;;;8.92;70.83;100550.38;5105315;28;20048;-64
2022/02/21 07:54:52;;;;;;;70.13;42.28;;;;;;;9.43;69.69;100545.88;5108560;28;20036;-61
2022/02/21 07:57:19;;;;;;;76.43;42.80;;;;;;;9.30;70.14;100550.06;5096518;28;20043;-64
2022/02/21 07:59:45;;;;;;;74.15;42.10;;;;;;;9.25;70.51;100557.34;5093251;28;20105;-62
2022/02/21 08:02:12;;;;;;;77.47;44.10;;;;;;;9.22;70.67;100558.34;5094805;28;20051;-62
2022/02/21 08:04:38;;;;;;;77.70;45.50;;;;;;;9.18;70.99;100554.22;5106268;28;20479;-62
2022/02/21 08:07:05;;;;;;;87.78;48.42;;;;;;;9.17;70.97;100549.91;5097294;28;20454;-61
2022/02/21 08:09:34;;;;;;;73.93;44.42;;;;;;;9.20;70.96;100559.38;5096392;28;20055;-62
2022/02/21 08:12:04;;;;;;;74.80;42.85;;;;;;;9.27;71.02;100550.25;5101273;28;20059;-61
2022/02/21 08:14:31;;;;;;;75.97;41.47;;;;;;;9.35;70.82;100534.97;5099246;28;20043;-61
2022/02/21 08:16:58;;;;;;;73.95;41.97;;;;;;;9.41;70.61;100534.63;5107032;28;20054;-62
2022/02/21 08:19:25;;;;;;;75.05;44.80;;;;;;;9.44;70.88;100528.38;5096226;28;20460;-64
2022/02/21 08:21:52;;;;;;;80.78;44.75;;;;;;;9.49;70.62;100523.72;5104909;28;20419;-62
2022/02/21 08:24:21;;;;;;;91.75;52.00;;;;;;;9.46;70.99;100523.91;5096825;28;20051;-61
2022/02/21 08:26:48;;;;;;;84.53;48.33;;;;;;;9.54;70.72;100508.59;5102909;28;20040;-62
2022/02/21 08:29:15;;;;;;;83.15;47.90;;;;;;;9.62;70.59;100498.53;5094243;28;20052;-63
2022/02/21 08:31:44;;;;;;;83.78;49.13;;;;;;;9.65;70.78;100505.38;5105221;28;20504;-61
2022/02/21 08:34:10;;;;;;;87.05;48.25;;;;;;;9.71;70.74;100504.16;5102192;28;20040;-61
2022/02/21 08:36:37;;;;;;;83.75;49.17;;;;;;;9.75;70.53;100488.19;5101227;27;20050;-61
2022/02/21 08:39:03;;;;;;;85.78;49.42;;;;;;;9.79;70.54;100483.63;5110417;28;20592;-62
2022/02/21 08:41:30;;;;;;;90.43;50.95;;;;;;;9.79;70.55;100484.47;5100118;28;20040;-61
2022/02/21 08:43:57;;;;;;;84.50;48.83;;;;;;;9.82;70.58;100470.34;5104977;28;20043;-61
2022/02/21 08:46:24;;;;;;;89.45;50.65;;;;;;;9.86;70.63;100471.84;5101452;28;20044;-61
2022/02/21 08:49:06;;;;;;;85.43;49.97;;;;;;;9.87;70.48;100470.09;5103466;28;20105;-62
2022/02/21 08:51:33;;;;;;;84.38;48.33;;;;;;;9.86;70.46;100469.22;5100946;28;20051;-63
2022/02/21 08:54:00;;;;;;;83.68;48.42;;;;;;;9.91;70.70;100461.09;5096654;28;20404;-63
2022/02/21 08:56:30;;;;;;;83.72;47.70;;;;;;;9.94;70.76;100450.41;5101597;28;20040;-62
2022/02/21 08:58:57;;;;;;;73.72;43.65;;;;;;;9.95;70.64;100452.13;5104437;28;20104;-61
2022/02/21 09:01:24;;;;;;;74.30;44.40;;;;;;;10.00;70.80;100452.69;5093724;28;20074;-63
2022/02/21 09:03:50;;;;;;;67.53;41.88;;;;;;;9.94;71.00;100453.03;5095467;28;20052;-64
2022/02/21 09:06:17;;;;;;;72.75;41.97;;;;;;;9.96;71.04;100457.25;5100303;28;20073;-61
2022/02/21 09:08:43;;;;;;;68.97;40.78;;;;;;;9.96;71.27;100453.81;5096882;27;20048;-61
2022/02/21 09:11:10;;;;;;;69.88;41.38;;;;;;;9.96;71.31;100456.44;5098640;28;20082;-61
2022/02/21 09:13:37;;;;;;;74.55;41.15;;;;;;;9.95;71.36;100452.13;5049819;28;20841;-60
2022/02/21 09:16:05;;;;;;;72.85;41.55;;;;;;;10.03;71.11;100446.41;5048811;28;20405;-62
2022/02/21 09:18:31;;;;;;;75.65;41.88;;;;;;;10.01;71.30;100441.28;5049513;28;20278;-61
2022/02/21 09:20:59;;;;;;;74.50;41.95;;;;;;;10.05;71.19;100436.69;5049591;28;20378;-62
2022/02/21 09:23:25;;;;;;;64.95;38.90;;;;;;;10.07;71.10;100430.41;5049550;28;20421;-62
2022/02/21 09:25:52;;;;;;;70.32;40.15;;;;;;;10.11;70.98;100421.44;5047855;28;20577;-62
2022/02/21 09:28:21;;;;;;;78.07;42.92;;;;;;;10.15;70.75;100400.28;5049376;28;20049;-62
2022/02/21 09:30:48;;;;;;;79.20;43.78;;;;;;;10.20;70.67;100385.13;5049721;28;20385;-62
2022/02/21 09:33:15;;;;;;;77.90;45.05;;;;;;;10.29;70.56;100381.94;5066090;28;20052;-62
2022/02/21 09:35:41;;;;;;;83.43;45.97;;;;;;;10.34;70.34;100379.88;5068863;28;20053;-65
2022/02/21 09:38:08;;;;;;;72.35;43.40;;;;;;;10.40;70.27;100371.66;5067349;28;20459;-61
2022/02/21 09:40:34;;;;;;;77.13;42.25;;;;;;;10.40;70.17;100376.06;5069471;28;20048;-62
2022/02/21 09:43:02;;;;;;;78.00;44.50;;;;;;;10.41;70.14;100362.00;5056486;28;20045;-61
2022/02/21 09:45:29;;;;;;;68.00;41.03;;;;;;;10.38;70.39;100367.44;5068287;28;20048;-62
2022/02/21 09:47:57;;;;;;;68.78;42.05;;;;;;;10.47;69.99;100361.59;5068293;28;20575;-61
2022/02/21 09:50:44;;;;;;;66.28;39.30;;;;;;;10.49;69.80;100370.25;5060628;28;20087;-61
2022/02/21 09:53:11;;;;;;;64.53;37.38;;;;;;;10.27;70.33;100386.41;5048924;28;20064;-62
2022/02/21 09:55:39;;;;;;;63.45;39.53;;;;;;;10.21;70.32;100377.16;5048983;28;20045;-62
2022/02/21 09:58:07;;;;;;;65.53;39.15;;;;;;;10.26;70.61;100366.41;5053176;28;20105;-62
2022/02/21 10:00:34;;;;;;;61.53;38.15;;;;;;;10.24;70.21;100363.00;5057136;28;20048;-61
2022/02/21 10:03:02;;;;;;;66.22;39.13;;;;;;;10.15;70.51;100355.72;5048744;28;20473;-62
2022/02/21 10:05:29;;;;;;;67.85;40.67;;;;;;;10.20;70.38;100348.41;5048357;28;20052;-62
2022/02/21 10:08:00;;;;;;;74.47;42.67;;;;;;;10.27;70.35;100339.22;5047964;28;20056;-62
2022/02/21 10:10:34;;;;;;;78.90;44.33;;;;;;;10.33;70.30;100328.34;5048222;28;20052;-61
2022/02/21 10:13:08;;;;;;;73.82;45.10;;;;;;;10.50;69.91;100331.72;5086014;28;20060;-62
2022/02/21 10:15:37;;;;;;;72.93;43.42;;;;;;;10.40;70.06;100318.38;5092280;28;20097;-61
2022/02/21 10:18:36;;;;;;;71.07;41.80;;;;;;;10.47;70.16;100311.75;5099989;28;20048;-62
2022/02/21 10:21:03;;;;;;;76.05;42.47;;;;;;;10.52;70.23;100319.34;5102521;28;20043;-62
2022/02/21 10:23:42;;;;;;;70.88;40.85;;;;;;;10.57;70.21;100312.88;5097914;28;20804;-62
2022/02/21 10:26:09;;;;;;;78.40;42.85;;;;;;;10.61;70.08;100306.50;5096334;28;20044;-61
2022/02/21 10:28:41;;;;;;;76.80;42.25;;;;;;;10.63;69.96;100303.78;5093373;28;20048;-62
2022/02/21 10:31:11;;;;;;;76.43;41.80;;;;;;;10.52;70.46;100314.94;5103205;28;20059;-61
2022/02/21 10:33:45;;;;;;;74.70;41.75;;;;;;;10.50;70.63;100314.22;5095699;27;20602;-62
2022/02/21 10:36:32;;;;;;;75.70;42.08;;;;;;;10.58;70.45;100319.81;5091696;28;20043;-62
2022/02/21 10:39:00;;;;;;;69.93;40.20;;;;;;;10.65;70.43;100315.00;5104737;28;20044;-62
2022/02/21 10:41:45;;;;;;;75.82;43.67;;;;;;;10.65;70.05;100307.13;5098563;28;20229;-64
2022/02/21 10:44:28;;;;;;;110.40;62.53;;;;;;;10.61;70.48;100309.13;5105789;28;20043;-61
2022/02/21 10:47:15;;;;;;;79.68;43.10;;;;;;;10.73;70.40;100309.28;5107118;28;20545;-61
2022/02/21 10:50:00;;;;;;;75.72;43.00;;;;;;;10.85;69.88;100305.84;5099746;28;20078;-62
2022/02/21 10:52:39;;;;;;;80.03;43.67;;;;;;;11.03;69.48;100302.97;5104439;28;20147;-62
2022/02/21 10:55:09;;;;;;;83.15;46.85;;;;;;;11.07;69.27;100302.69;5100275;28;20052;-63
2022/02/21 10:57:42;;;;;;;84.30;46.97;;;;;;;11.09;69.26;100306.03;5106510;28;20048;-63
2022/02/21 11:00:10;;;;;;;83.13;45.33;;;;;;;11.09;69.43;100298.16;5106506;28;20050;-62
2022/02/21 11:02:42;;;;;;;112.65;64.55;;;;;;;11.15;69.27;100299.53;5095433;28;20047;-61
2022/02/21 11:05:10;;;;;;;182.40;100.50;;;;;;;11.11;69.50;100298.06;5103453;28;20048;-62
2022/02/21 11:07:41;;;;;;;87.93;49.15;;;;;;;11.15;69.69;100289.03;5104821;28;20048;-62
2022/02/21 11:10:23;;;;;;;88.90;50.92;;;;;;;11.08;69.63;100288.59;5098502;28;20135;-61
2022/02/21 11:12:51;;;;;;;83.50;46.28;;;;;;;11.07;69.76;100299.19;5090724;28;20425;-61
2022/02/21 11:15:18;;;;;;;92.30;51.15;;;;;;;11.15;69.88;100282.91;5109751;28;20046;-61
2022/02/21 11:17:45;;;;;;;78.53;45.83;;;;;;;11.30;68.98;100278.44;5108130;28;20044;-61